KOFK/OFK METAR and TAF weather

Enter ICAO airport designator
Station Type Date Time Source
KOFK METAR 2019/06/27 03:56 UTC NOAA

KOFK 270356Z AUTO 14008KT 10SM CLR 23/18 A3002 RMK AO2 SLP156 T02330183


Station Type Date Time Source
KOFK Decoded METAR 2019/06/27 03:56 UTC NOAA

KARL STEFAN MEMORIAL AIRPORT, NE, United States (KOFK) 41-59N 097-26W 470M
Jun 26, 2019 - 11:56 PM EDT / 2019.06.27 0356 UTC
Wind: from the SE (140 degrees) at 9 MPH (8 KT):0
Visibility: 10 mile(s):0
Sky conditions: clear
Temperature: 73.9 F (23.3 C)
Dew Point: 64.9 F (18.3 C)
Relative Humidity: 73%
Pressure (altimeter): 30.02 in. Hg (1016 hPa)
ob: KOFK 270356Z AUTO 14008KT 10SM CLR 23/18 A3002 RMK AO2 SLP156 T02330183
cycle: 4

Station Type Date Time Source
KOFK TAF 2019/06/26 20:15 UTC NOAA

TAF
AMD KOFK 262013Z 2620/2718 18011KT P6SM SCT250
TEMPO 2620/2623 19013G20KT
FM270600 17012KT P6SM BKN250 WS020/21045KT
FM270900 17006KT P6SM VCTS BKN250CB WS020/21045KT
FM271200 18006KT P6SM BKN250

Example: see airport list